Time;durP1;ratioP1;P1;durP2;ratioP2;P2;SDS_P1;SDS_P2;PMS_P1;PMS_P2;Temp;Humidity;BMP_temperature;BMP_pressure;BME280_temperature;BME280_humidity;BME280_pressure;Samples;Min_cycle;Max_cycle;Signal;HPM_P1;HPM_P2
2022/04/19 00:01:10;;;;;;;;;;;23.40;38.70;;;;;;1540238;77;733;-70
2022/04/19 00:03:12;;;;;;;;;;;23.40;38.60;;;;;;1540126;77;800;-68
2022/04/19 00:05:14;;;;;;;;;;;23.40;38.50;;;;;;1535787;76;1931;-68
2022/04/19 00:07:16;;;;;;;;;;;23.40;38.70;;;;;;1540209;77;723;-67
2022/04/19 00:09:18;;;;;;;;;;;23.40;38.70;;;;;;1540336;77;1154;-67
2022/04/19 00:11:20;;;;;;;;;;;23.40;38.80;;;;;;1537306;76;775;-67
2022/04/19 00:13:22;;;;;;;;;;;23.40;38.90;;;;;;1540862;76;739;-67
2022/04/19 00:15:25;;;;;;;;;;;23.40;38.80;;;;;;1543566;76;694;-66
2022/04/19 00:17:27;;;;;;;;;;;23.40;38.80;;;;;;1529424;76;577;-68
2022/04/19 00:19:29;;;;;;;;;;;23.60;39.00;;;;;;1545380;76;1141;-67
2022/04/19 00:21:31;;;;;;;;;;;23.50;39.00;;;;;;1540507;77;686;-67
2022/04/19 00:23:33;;;;;;;;;;;23.60;39.00;;;;;;1529757;77;755;-66
2022/04/19 00:25:35;;;;;;;;;;;23.60;39.40;;;;;;1534845;76;1928;-66
2022/04/19 00:27:37;;;;;;;;;;;23.70;39.20;;;;;;1540160;77;901;-67
2022/04/19 00:29:41;;;;;;;;;;;23.70;38.90;;;;;;1540127;77;1126;-66
2022/04/19 00:31:43;;;;;;;;;;;23.70;38.90;;;;;;1536957;77;1686;-66
2022/04/19 00:33:45;;;;;;;;;;;23.60;38.90;;;;;;1540164;77;765;-66
2022/04/19 00:35:46;;;;;;;;;;;23.70;39.10;;;;;;1541103;76;742;-67
2022/04/19 00:37:49;;;;;;;;;;;23.60;39.00;;;;;;1540223;77;701;-66
2022/04/19 00:39:51;;;;;;;;;;;23.60;39.00;;;;;;1540177;77;1072;-66
2022/04/19 00:41:55;;;;;;;;;;;23.70;39.10;;;;;;1540174;77;761;-66
2022/04/19 00:43:56;;;;;;;;;;;23.70;39.10;;;;;;1539735;76;1699;-66
2022/04/19 00:45:58;;;;;;;;;;;23.70;39.00;;;;;;1536092;77;1933;-67
2022/04/19 00:48:00;;;;;;;;;;;23.70;39.00;;;;;;1540133;77;687;-66
2022/04/19 00:50:02;;;;;;;;;;;23.70;38.90;;;;;;1537538;77;1150;-68
2022/04/19 00:52:04;;;;;;;;;;;23.70;39.00;;;;;;1544223;76;709;-67
2022/04/19 00:54:06;;;;;;;;;;;23.60;38.90;;;;;;1540139;77;700;-66
2022/04/19 00:56:08;;;;;;;;;;;23.60;38.90;;;;;;1539847;77;757;-68
2022/04/19 00:58:11;;;;;;;;;;;23.60;38.90;;;;;;1540225;77;719;-67
2022/04/19 01:00:13;;;;;;;;;;;23.60;38.90;;;;;;1540111;77;1134;-66
2022/04/19 01:02:15;;;;;;;;;;;23.60;38.90;;;;;;1540622;77;606;-66
2022/04/19 01:04:18;;;;;;;;;;;23.70;39.10;;;;;;1542843;76;651;-67
2022/04/19 01:06:19;;;;;;;;;;;23.70;39.20;;;;;;1539937;76;1920;-67
2022/04/19 01:08:22;;;;;;;;;;;23.70;39.00;;;;;;1537199;76;1172;-67
2022/04/19 01:10:43;;;;;;;;;;;23.60;38.90;;;;;;1513181;77;747;-68
2022/04/19 01:15:05;;;;;;;;;;;23.70;39.10;;;;;;1482740;80;1655;-59
2022/04/19 01:17:07;;;;;;;;;;;23.60;39.00;;;;;;1485086;80;700;-56
2022/04/19 01:19:15;;;;;;;;;;;23.60;39.10;;;;;;1481667;79;1201;-59
2022/04/19 01:21:14;;;;;;;;;;;23.50;39.20;;;;;;1493775;79;1592;-55
2022/04/19 01:23:22;;;;;;;;;;;23.60;39.20;;;;;;1467430;80;694;-56
2022/04/19 01:25:20;;;;;;;;;;;23.60;39.20;;;;;;1532180;76;1638;-56
2022/04/19 01:27:22;;;;;;;;;;;23.50;39.20;;;;;;1533800;77;1948;-57
2022/04/19 01:29:24;;;;;;;;;;;23.50;39.20;;;;;;1533676;77;1142;-59
2022/04/19 01:31:26;;;;;;;;;;;23.60;39.30;;;;;;1533874;77;703;-59
2022/04/19 01:33:28;;;;;;;;;;;23.60;39.30;;;;;;1536685;76;715;-58
2022/04/19 01:35:30;;;;;;;;;;;23.60;39.20;;;;;;1533862;77;649;-59
2022/04/19 01:37:35;;;;;;;;;;;23.60;39.20;;;;;;1533863;77;746;-57
2022/04/19 01:41:57;;;;;;;;;;;23.70;39.40;;;;;;1537510;76;754;-56
2022/04/19 01:43:59;;;;;;;;;;;23.70;39.30;;;;;;1533782;77;716;-57
2022/04/19 01:46:02;;;;;;;;;;;23.80;39.30;;;;;;1536303;77;1926;-55
2022/04/19 01:48:04;;;;;;;;;;;23.70;39.20;;;;;;1536415;77;730;-56
2022/04/19 01:50:10;;;;;;;;;;;23.70;39.20;;;;;;1537249;76;1088;-57
2022/04/19 01:52:13;;;;;;;;;;;23.80;39.20;;;;;;1533737;77;771;-60
2022/04/19 01:54:15;;;;;;;;;;;23.70;39.10;;;;;;1536371;77;680;-59
2022/04/19 01:56:17;;;;;;;;;;;23.80;39.20;;;;;;1533749;76;691;-56
2022/04/19 01:58:18;;;;;;;;;;;23.80;39.20;;;;;;1536495;77;700;-57
2022/04/19 02:00:20;;;;;;;;;;;23.80;39.20;;;;;;1536602;77;1121;-59
2022/04/19 02:02:23;;;;;;;;;;;23.70;39.20;;;;;;1536471;77;720;-59
2022/04/19 02:04:25;;;;;;;;;;;23.80;39.20;;;;;;1536359;76;709;-59
2022/04/19 02:06:27;;;;;;;;;;;23.70;39.20;;;;;;1533733;77;1944;-59
2022/04/19 02:08:29;;;;;;;;;;;23.70;39.20;;;;;;1536484;77;727;-56
2022/04/19 02:10:31;;;;;;;;;;;23.70;39.20;;;;;;1533726;77;1161;-59
2022/04/19 02:12:33;;;;;;;;;;;23.70;39.20;;;;;;1532372;76;946;-59
2022/04/19 02:14:36;;;;;;;;;;;23.70;39.30;;;;;;1536417;77;778;-58
2022/04/19 02:16:38;;;;;;;;;;;23.70;39.30;;;;;;1536014;77;698;-56
2022/04/19 02:18:41;;;;;;;;;;;23.70;39.40;;;;;;1532755;77;1162;-58
2022/04/19 02:20:45;;;;;;;;;;;23.70;39.40;;;;;;1535704;76;768;-58
2022/04/19 02:22:47;;;;;;;;;;;23.70;39.50;;;;;;1535219;77;808;-56
2022/04/19 02:24:49;;;;;;;;;;;23.70;39.40;;;;;;1532818;76;784;-56
2022/04/19 02:26:50;;;;;;;;;;;23.80;39.40;;;;;;1532140;77;1926;-59
2022/04/19 02:28:53;;;;;;;;;;;23.90;39.40;;;;;;1536434;77;1149;-59
2022/04/19 02:30:55;;;;;;;;;;;23.90;39.40;;;;;;1533809;77;711;-59
2022/04/19 02:32:57;;;;;;;;;;;23.90;39.50;;;;;;1533592;76;800;-56
2022/04/19 02:34:59;;;;;;;;;;;23.90;39.60;;;;;;1523077;76;716;-59
2022/04/19 02:37:01;;;;;;;;;;;23.80;39.90;;;;;;1533777;77;633;-58
2022/04/19 02:39:03;;;;;;;;;;;23.70;40.10;;;;;;1531649;77;1115;-56
2022/04/19 02:41:05;;;;;;;;;;;23.50;40.50;;;;;;1516389;77;685;-59
2022/04/19 02:43:07;;;;;;;;;;;23.60;40.80;;;;;;1526542;76;792;-54
2022/04/19 02:45:09;;;;;;;;;;;23.50;40.90;;;;;;1536920;77;547;-57
2022/04/19 02:47:11;;;;;;;;;;;23.40;41.30;;;;;;1536699;77;1948;-57
2022/04/19 02:49:13;;;;;;;;;;;23.40;41.30;;;;;;1536720;77;1178;-56
2022/04/19 02:51:15;;;;;;;;;;;23.40;41.40;;;;;;1537457;76;691;-57
2022/04/19 02:53:16;;;;;;;;;;;23.40;41.40;;;;;;1536214;76;713;-57
2022/04/19 02:55:18;;;;;;;;;;;23.40;41.40;;;;;;1537373;76;773;-59
2022/04/19 02:57:20;;;;;;;;;;;23.40;41.60;;;;;;1536748;77;769;-58
2022/04/19 02:59:22;;;;;;;;;;;23.40;41.80;;;;;;1536595;77;1132;-58
2022/04/19 03:01:24;;;;;;;;;;;23.40;41.80;;;;;;1536725;77;788;-59
2022/04/19 03:03:28;;;;;;;;;;;23.40;41.60;;;;;;1537344;76;620;-56
2022/04/19 03:05:29;;;;;;;;;;;23.50;41.80;;;;;;1536709;77;2017;-56
2022/04/19 03:07:31;;;;;;;;;;;23.50;41.80;;;;;;1536819;77;1938;-57
2022/04/19 03:09:33;;;;;;;;;;;23.40;41.60;;;;;;1536653;77;1127;-60
2022/04/19 03:11:36;;;;;;;;;;;23.50;41.70;;;;;;1536974;77;659;-59
2022/04/19 03:13:38;;;;;;;;;;;23.50;41.60;;;;;;1537530;76;648;-60
2022/04/19 03:15:40;;;;;;;;;;;23.40;41.50;;;;;;1536695;77;662;-60
2022/04/19 03:17:43;;;;;;;;;;;23.40;41.50;;;;;;1536748;77;788;-57
2022/04/19 03:19:45;;;;;;;;;;;23.50;41.60;;;;;;1536657;77;1131;-58
2022/04/19 03:21:47;;;;;;;;;;;23.50;41.60;;;;;;1536785;76;667;-57
2022/04/19 03:28:28;;;;;;;;;;;23.50;41.40;;;;;;1536866;77;1624;-58
2022/04/19 03:30:30;;;;;;;;;;;23.50;41.30;;;;;;1536913;77;1106;-57
2022/04/19 03:32:32;;;;;;;;;;;23.50;41.40;;;;;;1537068;77;668;-56
2022/04/19 03:34:34;;;;;;;;;;;23.50;41.30;;;;;;1539169;76;727;-55
2022/04/19 03:36:36;;;;;;;;;;;23.60;41.50;;;;;;1536924;76;658;-56
2022/04/19 03:38:38;;;;;;;;;;;23.60;41.40;;;;;;1528516;77;1103;-59
2022/04/19 03:40:40;;;;;;;;;;;23.60;41.40;;;;;;1531569;76;678;-58
2022/04/19 03:42:42;;;;;;;;;;;23.70;41.60;;;;;;1534318;77;703;-57
2022/04/19 03:44:44;;;;;;;;;;;23.60;41.40;;;;;;1534165;77;709;-58
2022/04/19 03:49:06;;;;;;;;;;;23.70;41.40;;;;;;1553873;76;1150;-59
2022/04/19 03:51:08;;;;;;;;;;;23.60;41.30;;;;;;1563039;76;748;-58
2022/04/19 03:53:10;;;;;;;;;;;23.70;41.30;;;;;;1562938;76;651;-55
2022/04/19 03:55:12;;;;;;;;;;;23.70;41.30;;;;;;1557470;76;662;-56
2022/04/19 03:57:14;;;;;;;;;;;23.70;41.30;;;;;;1536450;77;873;-55
2022/04/19 03:59:16;;;;;;;;;;;23.70;41.30;;;;;;1536319;77;1148;-57
2022/04/19 04:01:18;;;;;;;;;;;23.70;41.20;;;;;;1536386;77;781;-55
2022/04/19 04:03:21;;;;;;;;;;;23.70;41.20;;;;;;1536368;77;684;-59
2022/04/19 04:05:24;;;;;;;;;;;23.70;41.10;;;;;;1537081;76;679;-56
2022/04/19 04:07:30;;;;;;;;;;;23.80;41.10;;;;;;1536328;77;1916;-58
2022/04/19 04:09:32;;;;;;;;;;;23.70;41.10;;;;;;1534405;77;1288;-58
2022/04/19 04:11:36;;;;;;;;;;;23.70;41.10;;;;;;1534685;77;745;-55
2022/04/19 04:13:37;;;;;;;;;;;23.70;41.30;;;;;;1530819;76;826;-56
2022/04/19 04:15:39;;;;;;;;;;;23.80;41.30;;;;;;1533071;77;663;-54
2022/04/19 04:17:41;;;;;;;;;;;23.70;41.30;;;;;;1535799;77;738;-56
2022/04/19 04:19:43;;;;;;;;;;;23.70;41.30;;;;;;1534913;77;1093;-57
2022/04/19 04:21:45;;;;;;;;;;;23.80;41.30;;;;;;1536671;76;732;-57
2022/04/19 04:23:47;;;;;;;;;;;23.80;41.30;;;;;;1536116;77;766;-59
2022/04/19 04:25:49;;;;;;;;;;;23.70;41.20;;;;;;1535852;76;841;-59
2022/04/19 04:27:51;;;;;;;;;;;23.80;41.20;;;;;;1532076;77;1936;-59
2022/04/19 04:29:53;;;;;;;;;;;23.90;41.30;;;;;;1536021;77;1104;-59
2022/04/19 04:31:55;;;;;;;;;;;23.80;41.20;;;;;;1535772;77;769;-58
2022/04/19 04:33:57;;;;;;;;;;;23.80;41.10;;;;;;1534448;77;786;-57
2022/04/19 04:35:59;;;;;;;;;;;23.80;41.30;;;;;;1540469;76;683;-57
2022/04/19 04:38:01;;;;;;;;;;;23.80;41.30;;;;;;1526841;77;757;-59
2022/04/19 04:40:03;;;;;;;;;;;23.80;41.20;;;;;;1523569;77;1106;-59
2022/04/19 04:42:05;;;;;;;;;;;23.80;41.20;;;;;;1517924;78;657;-60
2022/04/19 04:44:07;;;;;;;;;;;23.70;41.20;;;;;;1517873;78;547;-58
2022/04/19 04:50:48;;;;;;;;;;;23.70;41.30;;;;;;1536262;77;1619;-57
2022/04/19 04:52:52;;;;;;;;;;;23.80;41.20;;;;;;1536982;76;649;-55
2022/04/19 04:54:53;;;;;;;;;;;23.70;41.30;;;;;;1536654;76;1402;-58
2022/04/19 04:56:55;;;;;;;;;;;23.70;41.20;;;;;;1536286;77;640;-59
2022/04/19 04:58:57;;;;;;;;;;;23.70;41.20;;;;;;1536159;77;1119;-59
2022/04/19 05:00:59;;;;;;;;;;;23.70;41.40;;;;;;1531693;77;755;-57
2022/04/19 05:03:01;;;;;;;;;;;23.70;41.50;;;;;;1533274;77;631;-55
2022/04/19 05:05:03;;;;;;;;;;;23.80;41.50;;;;;;1530975;76;783;-55
2022/04/19 05:07:05;;;;;;;;;;;23.80;41.40;;;;;;1535844;77;1928;-59
2022/04/19 05:09:07;;;;;;;;;;;23.80;41.50;;;;;;1535910;77;1135;-59
2022/04/19 05:11:08;;;;;;;;;;;23.80;41.50;;;;;;1530652;77;788;-59
2022/04/19 05:13:10;;;;;;;;;;;23.80;41.60;;;;;;1535905;76;656;-54
2022/04/19 05:15:12;;;;;;;;;;;23.90;41.70;;;;;;1533444;77;748;-58
2022/04/19 05:17:14;;;;;;;;;;;23.80;41.50;;;;;;1535577;77;744;-55
2022/04/19 05:19:16;;;;;;;;;;;23.90;41.60;;;;;;1533186;77;1121;-58
2022/04/19 05:21:18;;;;;;;;;;;23.80;41.50;;;;;;1534871;76;717;-56
2022/04/19 05:23:20;;;;;;;;;;;23.90;41.50;;;;;;1535592;77;675;-58
2022/04/19 05:25:22;;;;;;;;;;;23.80;41.40;;;;;;1535724;76;903;-59
2022/04/19 05:27:24;;;;;;;;;;;23.90;41.60;;;;;;1532984;77;1967;-57
2022/04/19 05:29:26;;;;;;;;;;;23.80;41.50;;;;;;1535773;77;1183;-58
2022/04/19 05:31:28;;;;;;;;;;;23.90;41.50;;;;;;1534845;77;680;-56
2022/04/19 05:33:29;;;;;;;;;;;23.90;41.50;;;;;;1528714;76;727;-56
2022/04/19 05:35:32;;;;;;;;;;;23.80;41.40;;;;;;1528734;76;667;-58
2022/04/19 05:37:36;;;;;;;;;;;23.90;41.50;;;;;;1535714;77;680;-59
2022/04/19 05:39:38;;;;;;;;;;;23.90;41.40;;;;;;1531855;77;1173;-57
2022/04/19 05:41:40;;;;;;;;;;;23.90;41.50;;;;;;1535716;77;721;-55
2022/04/19 05:43:42;;;;;;;;;;;23.90;41.40;;;;;;1536129;76;963;-56
2022/04/19 05:45:44;;;;;;;;;;;23.90;41.40;;;;;;1534451;77;752;-55
2022/04/19 05:47:46;;;;;;;;;;;23.90;41.50;;;;;;1535083;77;1900;-56
2022/04/19 05:49:48;;;;;;;;;;;23.90;41.30;;;;;;1535721;77;1165;-56
2022/04/19 05:51:50;;;;;;;;;;;23.90;41.30;;;;;;1534766;76;749;-57
2022/04/19 05:53:52;;;;;;;;;;;23.90;41.30;;;;;;1533551;77;739;-59
2022/04/19 05:55:54;;;;;;;;;;;23.90;41.30;;;;;;1534626;76;750;-59
2022/04/19 05:57:56;;;;;;;;;;;23.90;41.30;;;;;;1535649;77;754;-58
2022/04/19 05:59:58;;;;;;;;;;;23.80;41.30;;;;;;1534183;77;1079;-59
2022/04/19 06:06:40;;;;;;;;;;;23.90;41.30;;;;;;1535669;77;750;-56
2022/04/19 06:08:42;;;;;;;;;;;23.90;41.20;;;;;;1533366;77;1934;-57
2022/04/19 06:10:45;;;;;;;;;;;23.90;41.20;;;;;;1533648;77;661;-57
2022/04/19 06:12:47;;;;;;;;;;;24.00;41.20;;;;;;1532040;76;940;-56
2022/04/19 06:14:49;;;;;;;;;;;24.00;41.20;;;;;;1495111;79;783;-59
2022/04/19 06:16:51;;;;;;;;;;;23.90;41.20;;;;;;1522521;77;685;-58
2022/04/19 06:18:52;;;;;;;;;;;23.90;41.30;;;;;;1510288;79;1168;-57
2022/04/19 06:20:54;;;;;;;;;;;23.90;41.50;;;;;;1523631;76;669;-56
2022/04/19 06:22:56;;;;;;;;;;;24.00;41.60;;;;;;1535828;77;624;-59
2022/04/19 06:24:58;;;;;;;;;;;23.90;41.40;;;;;;1536526;76;685;-60
2022/04/19 06:27:00;;;;;;;;;;;24.00;41.20;;;;;;1536071;77;759;-57
2022/04/19 06:29:03;;;;;;;;;;;24.00;41.00;;;;;;1536040;77;1943;-59
2022/04/19 06:31:04;;;;;;;;;;;23.90;40.90;;;;;;1526309;76;674;-59
2022/04/19 06:33:06;;;;;;;;;;;23.90;40.70;;;;;;1521340;77;751;-59
2022/04/19 06:35:13;;;;;;;;;;;23.90;40.60;;;;;;1522546;77;794;-57
2022/04/19 06:37:12;;;;;;;;;;;23.90;40.60;;;;;;1528541;77;1221;-57
2022/04/19 06:39:14;;;;;;;;;;;23.90;40.50;;;;;;1527467;76;1147;-57
2022/04/19 06:41:16;;;;;;;;;;;23.90;40.50;;;;;;1536348;77;672;-56
2022/04/19 06:43:17;;;;;;;;;;;24.00;40.50;;;;;;1536342;77;713;-60
2022/04/19 06:45:20;;;;;;;;;;;23.90;40.50;;;;;;1536261;77;931;-59
2022/04/19 06:47:25;;;;;;;;;;;23.90;40.40;;;;;;1537221;76;754;-60
2022/04/19 06:49:25;;;;;;;;;;;23.90;40.30;;;;;;1531424;77;1936;-60
2022/04/19 06:51:29;;;;;;;;;;;23.90;40.40;;;;;;1536395;77;587;-59
2022/04/19 06:53:31;;;;;;;;;;;23.90;40.30;;;;;;1527088;77;1732;-57
2022/04/19 06:55:34;;;;;;;;;;;23.90;40.30;;;;;;1537225;76;659;-58
2022/04/19 06:57:38;;;;;;;;;;;23.90;40.30;;;;;;1536332;77;692;-57
2022/04/19 06:59:39;;;;;;;;;;;23.90;40.30;;;;;;1536307;77;1509;-57
2022/04/19 07:01:43;;;;;;;;;;;23.90;40.30;;;;;;1535022;77;760;-56
2022/04/19 07:03:45;;;;;;;;;;;23.90;40.30;;;;;;1536407;77;667;-58
2022/04/19 07:05:46;;;;;;;;;;;23.90;40.20;;;;;;1537117;76;671;-59
2022/04/19 07:07:48;;;;;;;;;;;23.90;40.20;;;;;;1537008;76;1937;-58
2022/04/19 07:09:50;;;;;;;;;;;23.90;40.20;;;;;;1535457;76;1130;-59
2022/04/19 07:11:52;;;;;;;;;;;23.90;40.20;;;;;;1536358;77;688;-57
2022/04/19 07:13:54;;;;;;;;;;;23.90;40.20;;;;;;1535716;77;766;-58
2022/04/19 07:15:56;;;;;;;;;;;23.90;40.20;;;;;;1536935;76;738;-57
2022/04/19 07:17:58;;;;;;;;;;;23.90;40.20;;;;;;1536319;77;695;-58
2022/04/19 07:27:00;;;;;;;;;;;23.90;40.10;;;;;;1531549;77;1637;-57
2022/04/19 07:29:02;;;;;;;;;;;23.90;40.10;;;;;;1534796;77;1941;-56
2022/04/19 07:31:04;;;;;;;;;;;23.90;40.00;;;;;;1536262;77;676;-56
2022/04/19 07:33:06;;;;;;;;;;;23.90;40.00;;;;;;1536236;76;968;-57
2022/04/19 07:35:08;;;;;;;;;;;23.90;40.10;;;;;;1536442;77;708;-57
2022/04/19 07:37:10;;;;;;;;;;;23.90;40.10;;;;;;1536187;77;665;-57
2022/04/19 07:39:12;;;;;;;;;;;23.90;40.00;;;;;;1536176;77;1158;-56
2022/04/19 07:41:15;;;;;;;;;;;23.90;40.00;;;;;;1536960;76;703;-59
2022/04/19 07:43:17;;;;;;;;;;;23.90;40.00;;;;;;1536212;77;751;-58
2022/04/19 07:45:19;;;;;;;;;;;23.90;40.00;;;;;;1536314;77;684;-58
2022/04/19 07:47:21;;;;;;;;;;;23.90;40.10;;;;;;1536302;77;683;-57
2022/04/19 07:49:23;;;;;;;;;;;23.90;40.10;;;;;;1535995;76;1936;-56
2022/04/19 07:51:25;;;;;;;;;;;23.90;40.10;;;;;;1536332;77;630;-59
2022/04/19 07:53:27;;;;;;;;;;;23.90;40.20;;;;;;1536051;77;691;-58
2022/04/19 07:55:29;;;;;;;;;;;23.90;40.20;;;;;;1537026;76;690;-59
2022/04/19 07:57:31;;;;;;;;;;;23.90;40.20;;;;;;1536085;77;692;-57
2022/04/19 07:59:33;;;;;;;;;;;24.00;40.40;;;;;;1536206;77;1155;-58
2022/04/19 08:01:35;;;;;;;;;;;24.00;40.70;;;;;;1536498;77;666;-59
2022/04/19 08:03:37;;;;;;;;;;;24.10;40.80;;;;;;1537403;76;710;-57
2022/04/19 08:05:39;;;;;;;;;;;24.10;41.00;;;;;;1536132;77;690;-56
2022/04/19 08:07:41;;;;;;;;;;;24.20;40.40;;;;;;1536337;77;652;-56
2022/04/19 08:09:43;;;;;;;;;;;24.20;39.70;;;;;;1533166;77;1922;-57
2022/04/19 08:11:48;;;;;;;;;;;24.30;38.60;;;;;;1535446;77;590;-60
2022/04/19 08:13:49;;;;;;;;;;;24.30;39.30;;;;;;1536634;76;1681;-57
2022/04/19 08:15:51;;;;;;;;;;;24.30;39.40;;;;;;1536146;77;761;-59
2022/04/19 08:17:53;;;;;;;;;;;24.30;39.40;;;;;;1536388;77;703;-57
2022/04/19 08:19:56;;;;;;;;;;;24.30;39.10;;;;;;1536956;76;1115;-58
2022/04/19 08:21:58;;;;;;;;;;;24.40;39.00;;;;;;1536297;77;666;-59
2022/04/19 08:24:00;;;;;;;;;;;24.40;39.00;;;;;;1536276;77;708;-56
2022/04/19 08:26:01;;;;;;;;;;;24.30;38.60;;;;;;1536993;76;672;-60
2022/04/19 08:28:03;;;;;;;;;;;24.40;38.60;;;;;;1536182;77;1932;-60
2022/04/19 08:30:06;;;;;;;;;;;24.30;38.50;;;;;;1536261;77;1162;-60
2022/04/19 08:32:07;;;;;;;;;;;24.40;38.20;;;;;;1536173;77;641;-59
2022/04/19 08:34:09;;;;;;;;;;;24.50;38.40;;;;;;1536736;76;568;-61
2022/04/19 08:36:11;;;;;;;;;;;24.50;38.40;;;;;;1536198;77;706;-60
2022/04/19 08:38:13;;;;;;;;;;;24.40;38.10;;;;;;1536171;77;708;-60
2022/04/19 08:40:16;;;;;;;;;;;24.50;38.40;;;;;;1535799;77;1130;-58
2022/04/19 08:42:18;;;;;;;;;;;24.60;38.30;;;;;;1536874;76;724;-57
2022/04/19 08:44:20;;;;;;;;;;;24.70;37.90;;;;;;1536082;77;659;-61
2022/04/19 08:46:22;;;;;;;;;;;24.90;36.80;;;;;;1536400;77;589;-59
2022/04/19 08:48:26;;;;;;;;;;;25.00;36.20;;;;;;1536236;77;1923;-57
2022/04/19 08:50:29;;;;;;;;;;;25.00;36.30;;;;;;1536031;77;1049;-60
2022/04/19 08:52:31;;;;;;;;;;;25.10;36.00;;;;;;1536978;76;810;-59
2022/04/19 08:59:16;;;;;;;;;;;25.00;33.70;;;;;;1544667;76;1567;-58
2022/04/19 09:01:18;;;;;;;;;;;25.00;32.30;;;;;;1530161;77;683;-58
2022/04/19 09:03:20;;;;;;;;;;;24.90;30.80;;;;;;1517821;78;705;-59
2022/04/19 09:05:23;;;;;;;;;;;24.80;30.10;;;;;;1521099;76;621;-59
2022/04/19 09:07:26;;;;;;;;;;;24.70;30.60;;;;;;1536106;77;667;-56
2022/04/19 09:09:29;;;;;;;;;;;24.70;30.30;;;;;;1534197;77;1933;-58
2022/04/19 09:11:34;;;;;;;;;;;24.70;30.50;;;;;;1536186;77;642;-56
2022/04/19 09:13:36;;;;;;;;;;;24.60;29.70;;;;;;1532600;77;690;-59
2022/04/19 09:15:42;;;;;;;;;;;24.60;29.70;;;;;;1530943;76;806;-60
2022/04/19 09:17:46;;;;;;;;;;;24.60;30.00;;;;;;1534439;77;1262;-59
2022/04/19 09:19:48;;;;;;;;;;;24.60;30.20;;;;;;1533178;77;1941;-58
2022/04/19 09:21:49;;;;;;;;;;;24.50;30.30;;;;;;1533532;77;745;-59
2022/04/19 09:23:52;;;;;;;;;;;24.50;30.10;;;;;;1535113;76;743;-59
2022/04/19 09:25:56;;;;;;;;;;;24.50;30.10;;;;;;1534345;76;874;-56
2022/04/19 09:27:58;;;;;;;;;;;24.40;30.10;;;;;;1535882;77;748;-60
2022/04/19 09:30:01;;;;;;;;;;;24.50;30.00;;;;;;1534017;76;1941;-57
2022/04/19 09:32:04;;;;;;;;;;;24.50;30.10;;;;;;1528954;77;966;-58
2022/04/19 09:34:06;;;;;;;;;;;24.50;29.90;;;;;;1504375;79;1169;-58
2022/04/19 09:36:08;;;;;;;;;;;24.60;29.40;;;;;;1534364;77;789;-60
2022/04/19 09:38:10;;;;;;;;;;;24.50;29.80;;;;;;1535816;76;749;-60
2022/04/19 09:40:12;;;;;;;;;;;24.60;30.10;;;;;;1534421;77;1192;-57
2022/04/19 09:42:14;;;;;;;;;;;24.50;30.00;;;;;;1492212;78;753;-58
2022/04/19 09:44:16;;;;;;;;;;;24.50;29.50;;;;;;1534320;77;660;-60
2022/04/19 09:46:18;;;;;;;;;;;24.50;28.70;;;;;;1537650;76;684;-59
2022/04/19 09:48:22;;;;;;;;;;;24.50;29.80;;;;;;1535948;77;717;-57
2022/04/19 09:50:23;;;;;;;;;;;24.50;29.50;;;;;;1534923;77;1998;-60
2022/04/19 09:52:27;;;;;;;;;;;24.50;29.50;;;;;;1535731;77;832;-60
2022/04/19 09:54:29;;;;;;;;;;;24.40;29.40;;;;;;1534331;76;983;-57
2022/04/19 09:56:37;;;;;;;;;;;24.40;29.50;;;;;;1535892;76;689;-58
2022/04/19 09:58:39;;;;;;;;;;;24.40;26.20;;;;;;1533237;77;1150;-58
2022/04/19 10:00:41;;;;;;;;;;;24.30;28.70;;;;;;1533863;77;711;-58
2022/04/19 10:09:43;;;;;;;;;;;24.40;28.90;;;;;;1533684;77;1958;-56
2022/04/19 10:11:45;;;;;;;;;;;24.30;29.00;;;;;;1535180;77;769;-60
2022/04/19 10:13:47;;;;;;;;;;;24.30;28.60;;;;;;1534379;76;745;-61
2022/04/19 10:15:49;;;;;;;;;;;24.30;28.80;;;;;;1528407;77;685;-58
2022/04/19 10:17:51;;;;;;;;;;;24.30;28.20;;;;;;1533921;77;758;-58
2022/04/19 10:19:53;;;;;;;;;;;24.30;27.80;;;;;;1534039;77;1153;-60
2022/04/19 10:21:58;;;;;;;;;;;24.30;27.80;;;;;;1533129;76;751;-61
2022/04/19 10:24:10;;;;;;;;;;;24.20;27.80;;;;;;1532544;77;1484;-56
2022/04/19 10:26:13;;;;;;;;;;;24.20;27.30;;;;;;1535637;76;1043;-60
2022/04/19 10:28:15;;;;;;;;;;;24.20;27.60;;;;;;1535626;77;1065;-58
2022/04/19 10:30:20;;;;;;;;;;;24.10;27.90;;;;;;1532344;77;1930;-60
2022/04/19 10:32:24;;;;;;;;;;;24.10;27.90;;;;;;1532629;77;737;-57
2022/04/19 10:34:26;;;;;;;;;;;24.20;27.70;;;;;;1534487;76;1749;-57
2022/04/19 10:36:35;;;;;;;;;;;24.10;27.80;;;;;;1534434;76;676;-58
2022/04/19 10:38:37;;;;;;;;;;;24.10;28.00;;;;;;1533578;77;1192;-58
2022/04/19 10:40:51;;;;;;;;;;;24.20;27.80;;;;;;1535292;77;659;-57
2022/04/19 10:42:55;;;;;;;;;;;24.10;27.70;;;;;;1534959;77;717;-59
2022/04/19 10:44:57;;;;;;;;;;;24.10;27.80;;;;;;1531380;76;1713;-57
2022/04/19 10:47:15;;;;;;;;;;;24.00;28.00;;;;;;1535605;77;661;-59
2022/04/19 10:49:24;;;;;;;;;;;24.00;28.10;;;;;;1526416;77;1936;-56
2022/04/19 10:51:29;;;;;;;;;;;24.00;28.00;;;;;;1536485;77;668;-60
2022/04/19 10:53:33;;;;;;;;;;;24.00;28.20;;;;;;1534940;76;667;-59
2022/04/19 10:55:38;;;;;;;;;;;24.10;28.10;;;;;;1535554;76;664;-57
2022/04/19 11:00:23;;;;;;;;;;;24.00;27.90;;;;;;1528026;76;1598;-60
2022/04/19 11:02:39;;;;;;;;;;;24.00;28.00;;;;;;1534715;77;709;-58
2022/04/19 11:04:38;;;;;;;;;;;24.00;28.10;;;;;;1537189;76;1362;-58
2022/04/19 11:06:45;;;;;;;;;;;24.00;28.10;;;;;;1534113;77;723;-59
2022/04/19 11:08:43;;;;;;;;;;;23.90;27.30;;;;;;1534080;77;1162;-60
2022/04/19 11:10:46;;;;;;;;;;;23.90;26.10;;;;;;1536054;77;1949;-59
2022/04/19 11:12:58;;;;;;;;;;;23.90;25.20;;;;;;1536228;77;903;-56
2022/04/19 11:15:15;;;;;;;;;;;23.80;26.10;;;;;;1537090;76;738;-59
2022/04/19 11:17:21;;;;;;;;;;;23.80;26.00;;;;;;1533861;77;795;-58
2022/04/19 11:19:25;;;;;;;;;;;23.70;25.20;;;;;;1536237;77;1158;-58
2022/04/19 11:21:45;;;;;;;;;;;23.70;24.80;;;;;;1535945;77;1677;-56
2022/04/19 11:23:48;;;;;;;;;;;23.60;25.20;;;;;;1537237;76;644;-57
2022/04/19 11:25:51;;;;;;;;;;;23.60;25.60;;;;;;1537270;76;664;-58
2022/04/19 11:27:54;;;;;;;;;;;23.60;25.50;;;;;;1536444;77;744;-59
2022/04/19 11:29:56;;;;;;;;;;;23.60;25.40;;;;;;1536521;77;1938;-60
2022/04/19 11:31:59;;;;;;;;;;;23.50;24.10;;;;;;1536627;77;627;-57
2022/04/19 11:34:01;;;;;;;;;;;23.50;25.30;;;;;;1536653;76;612;-60
2022/04/19 11:36:04;;;;;;;;;;;23.40;25.20;;;;;;1499292;79;1152;-59
2022/04/19 11:38:13;;;;;;;;;;;23.40;25.50;;;;;;1530430;77;643;-56
2022/04/19 11:47:33;;;;;;;;;;;23.40;25.60;;;;;;1536487;77;1695;-58
2022/04/19 11:49:35;;;;;;;;;;;23.30;25.90;;;;;;1534635;76;1961;-56
2022/04/19 11:51:38;;;;;;;;;;;23.30;26.50;;;;;;1536219;77;779;-57
2022/04/19 11:53:40;;;;;;;;;;;23.40;27.10;;;;;;1533988;77;695;-56
2022/04/19 11:55:43;;;;;;;;;;;23.40;28.10;;;;;;1536443;76;689;-55
2022/04/19 11:57:45;;;;;;;;;;;23.40;29.50;;;;;;1535216;77;1946;-56
2022/04/19 11:59:47;;;;;;;;;;;23.40;29.70;;;;;;1536564;77;1162;-57
2022/04/19 12:01:49;;;;;;;;;;;23.30;30.20;;;;;;1507780;78;1376;-56
2022/04/19 12:03:51;;;;;;;;;;;23.30;31.30;;;;;;1536417;77;689;-57
2022/04/19 12:05:54;;;;;;;;;;;23.30;31.00;;;;;;1537014;76;622;-55
2022/04/19 12:07:56;;;;;;;;;;;23.30;31.00;;;;;;1536268;77;726;-55
2022/04/19 12:09:59;;;;;;;;;;;23.30;31.50;;;;;;1536408;77;1936;-56
2022/04/19 12:12:02;;;;;;;;;;;23.30;31.60;;;;;;1536405;77;729;-58
2022/04/19 12:14:03;;;;;;;;;;;23.40;31.60;;;;;;1536978;76;738;-57
2022/04/19 12:16:10;;;;;;;;;;;23.30;31.70;;;;;;1536443;77;719;-57
2022/04/19 12:18:10;;;;;;;;;;;23.30;31.70;;;;;;1534978;77;1263;-55
2022/04/19 12:20:12;;;;;;;;;;;23.40;31.70;;;;;;1536223;77;1156;-57
2022/04/19 12:22:18;;;;;;;;;;;23.50;32.00;;;;;;1536342;76;703;-55
2022/04/19 12:24:21;;;;;;;;;;;23.60;31.80;;;;;;1534405;77;1825;-57
2022/04/19 12:26:24;;;;;;;;;;;23.60;31.80;;;;;;1536858;76;684;-56
2022/04/19 12:28:40;;;;;;;;;;;23.70;31.80;;;;;;1536280;77;662;-56
2022/04/19 12:30:43;;;;;;;;;;;23.80;31.80;;;;;;1536164;77;1944;-56
2022/04/19 12:32:50;;;;;;;;;;;24.00;31.40;;;;;;1535810;77;1753;-56
2022/04/19 12:34:53;;;;;;;;;;;24.00;31.50;;;;;;1535894;76;2085;-57
2022/04/19 12:36:55;;;;;;;;;;;24.00;31.30;;;;;;1533805;77;1896;-57
2022/04/19 12:39:01;;;;;;;;;;;24.10;31.20;;;;;;1536350;77;1143;-58
2022/04/19 12:41:03;;;;;;;;;;;24.20;31.20;;;;;;1536302;77;701;-56
2022/04/19 12:43:04;;;;;;;;;;;24.20;31.10;;;;;;1518235;77;1244;-57
2022/04/19 12:45:07;;;;;;;;;;;24.20;31.00;;;;;;1536325;77;725;-55
2022/04/19 12:47:14;;;;;;;;;;;24.30;31.00;;;;;;1536159;77;681;-57
2022/04/19 12:49:25;;;;;;;;;;;24.40;30.90;;;;;;1535970;77;1679;-57
2022/04/19 12:51:27;;;;;;;;;;;24.30;30.70;;;;;;1536882;76;1914;-59
2022/04/19 12:53:28;;;;;;;;;;;24.30;30.80;;;;;;1536319;77;714;-57
2022/04/19 12:55:31;;;;;;;;;;;24.30;30.90;;;;;;1539195;76;771;-58
2022/04/19 12:57:35;;;;;;;;;;;24.30;30.90;;;;;;1528951;76;683;-59
2022/04/19 12:59:36;;;;;;;;;;;24.30;30.70;;;;;;1534731;77;1757;-57
2022/04/19 13:01:38;;;;;;;;;;;24.30;30.90;;;;;;1531419;76;744;-59